createdAt,value
2023-03-15T00:00:50.462Z,0.70
2023-03-15T00:03:19.745Z,0.85
2023-03-15T00:05:52.306Z,0.65
2023-03-15T00:08:21.863Z,0.60
2023-03-15T00:10:50.044Z,0.60
2023-03-15T00:13:18.553Z,0.47
2023-03-15T00:15:48.182Z,0.57
2023-03-15T00:18:16.831Z,0.70
2023-03-15T00:20:45.193Z,0.32
2023-03-15T00:23:16.002Z,0.50
2023-03-15T00:25:46.159Z,1.08
2023-03-15T00:28:14.619Z,0.30
2023-03-15T00:30:43.120Z,0.37
2023-03-15T00:33:13.874Z,0.50
2023-03-15T00:35:43.769Z,0.45
2023-03-15T00:38:13.641Z,0.70
2023-03-15T00:40:44.457Z,0.95
2023-03-15T00:43:18.031Z,0.60
2023-03-15T00:45:46.470Z,0.65
2023-03-15T00:48:14.333Z,1.08
2023-03-15T00:50:43.814Z,0.73
2023-03-15T00:53:12.037Z,0.70
2023-03-15T00:55:39.972Z,0.60
2023-03-15T00:58:09.244Z,0.88
2023-03-15T01:00:38.284Z,0.88
2023-03-15T01:03:10.834Z,0.68
2023-03-15T01:05:39.106Z,0.62
2023-03-15T01:08:07.744Z,0.73
2023-03-15T01:10:36.410Z,0.28
2023-03-15T01:13:04.643Z,1.25
2023-03-15T01:15:34.069Z,0.50
2023-03-15T01:18:02.109Z,1.30
2023-03-15T01:20:30.696Z,0.77
2023-03-15T01:22:58.671Z,0.88
2023-03-15T01:25:26.690Z,1.02
2023-03-15T01:27:55.348Z,0.55
2023-03-15T01:30:23.402Z,0.73
2023-03-15T01:32:52.712Z,0.80
2023-03-15T01:35:21.134Z,0.75
2023-03-15T01:37:50.648Z,1.25
2023-03-15T01:40:20.183Z,0.70
2023-03-15T01:43:15.016Z,0.50
2023-03-15T01:46:04.652Z,0.60
2023-03-15T01:48:38.206Z,0.47
2023-03-15T01:51:12.491Z,0.45
2023-03-15T01:53:44.889Z,0.60
2023-03-15T01:56:13.774Z,0.68
2023-03-15T01:58:46.454Z,0.62
2023-03-15T02:01:16.492Z,0.60
2023-03-15T02:03:51.586Z,0.88
2023-03-15T02:06:23.349Z,0.50
2023-03-15T02:08:57.963Z,0.75
2023-03-15T02:11:28.513Z,0.85
2023-03-15T02:13:58.836Z,0.62
2023-03-15T02:16:30.774Z,0.60
2023-03-15T02:19:00.944Z,0.57
2023-03-15T02:21:51.637Z,0.40
2023-03-15T02:24:35.058Z,0.40
2023-03-15T02:27:03.635Z,0.68
2023-03-15T02:29:33.786Z,1.20
2023-03-15T02:32:04.527Z,0.32
2023-03-15T02:34:33.231Z,0.70
2023-03-15T02:37:02.262Z,1.00
2023-03-15T02:39:30.461Z,0.73
2023-03-15T02:42:00.143Z,0.30
2023-03-15T02:44:32.614Z,0.62
2023-03-15T02:47:05.735Z,0.93
2023-03-15T02:49:38.729Z,0.50
2023-03-15T02:52:07.720Z,0.30
2023-03-15T02:54:36.106Z,0.50
2023-03-15T02:57:04.620Z,0.60
2023-03-15T02:59:33.706Z,0.68
2023-03-15T03:02:03.764Z,0.55
2023-03-15T03:04:31.815Z,1.37
2023-03-15T03:07:00.547Z,0.80
2023-03-15T03:09:32.665Z,0.40
2023-03-15T03:12:00.983Z,0.43
2023-03-15T03:14:29.372Z,0.60
2023-03-15T03:16:58.171Z,0.80
2023-03-15T03:19:27.950Z,0.50
2023-03-15T03:21:57.467Z,0.40
2023-03-15T03:24:27.394Z,0.30
2023-03-15T03:26:58.034Z,0.95
2023-03-15T03:29:27.976Z,0.62
2023-03-15T03:31:56.504Z,0.60
2023-03-15T03:34:24.513Z,0.65
2023-03-15T03:36:54.117Z,1.10
2023-03-15T03:39:23.407Z,0.68
2023-03-15T03:41:51.445Z,0.62
2023-03-15T03:44:20.634Z,0.50
2023-03-15T03:46:48.861Z,0.57
2023-03-15T03:49:16.946Z,0.47
2023-03-15T03:51:47.679Z,0.73
2023-03-15T03:54:17.725Z,0.60
2023-03-15T03:56:46.241Z,0.65
2023-03-15T03:59:14.430Z,0.65
2023-03-15T04:01:43.144Z,1.30
2023-03-15T04:04:14.279Z,0.70
2023-03-15T04:06:45.573Z,0.70
2023-03-15T04:09:14.754Z,0.40
2023-03-15T04:11:45.845Z,0.75
2023-03-15T04:14:15.772Z,0.80
2023-03-15T04:16:44.228Z,0.88
2023-03-15T04:19:13.787Z,0.52
2023-03-15T04:21:47.517Z,1.10
2023-03-15T04:24:16.264Z,1.02
2023-03-15T04:26:46.008Z,0.65
2023-03-15T04:29:15.627Z,0.43
2023-03-15T04:31:43.881Z,1.00
2023-03-15T04:34:13.482Z,1.52
2023-03-15T04:36:43.576Z,0.88
2023-03-15T04:39:12.661Z,1.10
2023-03-15T04:41:41.284Z,0.82
2023-03-15T04:44:10.683Z,0.60
2023-03-15T04:46:38.994Z,0.32
2023-03-15T04:49:07.453Z,0.82
2023-03-15T04:51:35.797Z,0.77
2023-03-15T04:54:04.392Z,1.02
2023-03-15T04:56:33.074Z,0.32
2023-03-15T04:59:01.774Z,0.80
2023-03-15T05:01:33.189Z,1.08
2023-03-15T05:04:01.592Z,0.55
2023-03-15T05:06:30.585Z,1.00
2023-03-15T05:08:59.022Z,0.73
2023-03-15T05:11:27.310Z,0.73
2023-03-15T05:13:55.969Z,0.80
2023-03-15T05:16:24.317Z,0.55
2023-03-15T05:18:57.171Z,0.80
2023-03-15T05:21:25.445Z,0.45
2023-03-15T05:23:53.737Z,0.43
2023-03-15T05:26:24.805Z,0.68
2023-03-15T05:28:53.479Z,1.10
2023-03-15T05:31:21.986Z,1.17
2023-03-15T05:33:54.412Z,0.50
2023-03-15T05:36:23.799Z,0.82
2023-03-15T05:38:53.660Z,0.82
2023-03-15T05:41:22.088Z,0.45
2023-03-15T05:43:50.522Z,0.52
2023-03-15T05:46:20.159Z,1.02
2023-03-15T05:48:51.593Z,0.30
2023-03-15T05:51:20.093Z,0.70
2023-03-15T05:53:49.487Z,0.80
2023-03-15T05:56:19.484Z,0.80
2023-03-15T05:58:47.617Z,0.28
2023-03-15T06:01:15.838Z,0.40
2023-03-15T06:03:44.804Z,0.55
2023-03-15T06:06:13.052Z,0.80
2023-03-15T06:08:41.213Z,1.02
2023-03-15T06:11:10.846Z,1.10
2023-03-15T06:13:41.163Z,1.17
2023-03-15T06:16:11.593Z,0.60
2023-03-15T06:18:40.714Z,1.25
2023-03-15T06:21:09.644Z,0.70
2023-03-15T06:23:38.438Z,0.62
2023-03-15T06:26:06.641Z,1.00
2023-03-15T06:28:37.302Z,0.90
2023-03-15T06:31:08.777Z,0.75
2023-03-15T06:33:38.551Z,1.12
2023-03-15T06:36:11.188Z,0.88
2023-03-15T06:38:39.961Z,1.12
2023-03-15T06:41:08.652Z,0.70
2023-03-15T06:43:38.370Z,0.57
2023-03-15T06:46:07.106Z,0.93
2023-03-15T06:48:36.063Z,0.77
2023-03-15T06:51:05.964Z,1.17
2023-03-15T06:53:37.428Z,0.90
2023-03-15T06:56:06.051Z,0.98
2023-03-15T06:58:34.407Z,0.73
2023-03-15T07:01:03.840Z,0.75
2023-03-15T07:03:31.971Z,1.15
2023-03-15T07:06:00.154Z,1.25
2023-03-15T07:08:28.142Z,1.08
2023-03-15T07:10:56.326Z,1.05
2023-03-15T07:13:24.821Z,1.30
2023-03-15T07:15:54.072Z,0.50
2023-03-15T07:18:24.237Z,0.60
2023-03-15T07:21:00.139Z,0.98
2023-03-15T07:23:29.267Z,0.93
2023-03-15T07:25:58.207Z,1.20
2023-03-15T07:28:27.935Z,1.27
2023-03-15T07:30:57.747Z,0.70
2023-03-15T07:33:27.964Z,0.88
2023-03-15T07:35:56.662Z,0.90
2023-03-15T07:38:26.045Z,0.77
2023-03-15T07:40:54.406Z,0.70
2023-03-15T07:43:24.588Z,0.75
2023-03-15T07:45:59.653Z,1.02
2023-03-15T07:48:30.201Z,1.83
2023-03-15T07:50:58.410Z,1.23
2023-03-15T07:53:26.781Z,1.17
2023-03-15T07:55:55.483Z,1.00
2023-03-15T07:58:24.186Z,1.05
2023-03-15T08:00:55.867Z,1.15
2023-03-15T08:03:24.513Z,1.42
2023-03-15T08:05:54.139Z,1.33
2023-03-15T08:08:22.242Z,0.98
2023-03-15T08:10:50.467Z,1.35
2023-03-15T08:13:18.819Z,0.90
2023-03-15T08:15:47.531Z,1.00
2023-03-15T08:18:15.900Z,1.20
2023-03-15T08:20:44.081Z,1.27
2023-03-15T08:23:16.285Z,2.03
2023-03-15T08:25:45.023Z,1.40
2023-03-15T08:28:13.044Z,1.10
2023-03-15T08:30:41.357Z,1.17
2023-03-15T08:33:10.437Z,1.58
2023-03-15T08:35:38.499Z,1.30
2023-03-15T08:38:06.509Z,2.03
2023-03-15T08:40:36.730Z,1.45
2023-03-15T08:43:05.659Z,1.60
2023-03-15T08:45:51.022Z,1.80
2023-03-15T08:48:21.664Z,1.17
2023-03-15T08:50:49.689Z,1.00
2023-03-15T08:53:17.678Z,1.25
2023-03-15T08:55:48.716Z,1.35
2023-03-15T08:58:16.845Z,1.08
2023-03-15T09:00:44.867Z,0.93
2023-03-15T09:03:13.467Z,1.20
2023-03-15T09:05:44.492Z,1.10
2023-03-15T09:08:14.058Z,1.15
2023-03-15T09:10:41.989Z,1.48
2023-03-15T09:13:11.213Z,1.00
2023-03-15T09:15:39.558Z,0.90
2023-03-15T09:18:07.467Z,1.20
2023-03-15T09:20:35.562Z,0.82
2023-03-15T09:23:03.768Z,1.23
2023-03-15T09:25:31.873Z,1.10
2023-03-15T09:27:59.975Z,1.20
2023-03-15T09:30:29.895Z,1.35
2023-03-15T09:32:58.046Z,1.02
2023-03-15T09:35:26.254Z,1.25
2023-03-15T09:37:54.548Z,1.15
2023-03-15T09:40:26.893Z,0.90
2023-03-15T09:43:19.263Z,1.08
2023-03-15T09:46:05.440Z,0.90
2023-03-15T09:48:37.967Z,0.80
2023-03-15T09:51:11.631Z,1.02
2023-03-15T09:53:43.913Z,0.88
2023-03-15T09:56:23.558Z,1.00
2023-03-15T09:58:55.142Z,0.95
2023-03-15T10:01:30.838Z,0.70
2023-03-15T10:04:00.859Z,1.00
2023-03-15T10:06:36.519Z,0.75
2023-03-15T10:09:14.889Z,1.00
2023-03-15T10:11:51.016Z,0.70
2023-03-15T10:14:28.160Z,0.70
2023-03-15T10:16:57.410Z,0.93
2023-03-15T10:19:33.281Z,0.80
2023-03-15T10:22:04.902Z,0.50
2023-03-15T10:24:39.648Z,0.70
2023-03-15T10:27:17.063Z,0.77
2023-03-15T10:29:45.973Z,0.65
2023-03-15T10:32:19.273Z,0.70
2023-03-15T10:34:50.709Z,0.50
2023-03-15T10:37:19.134Z,0.60
2023-03-15T10:39:50.484Z,0.57
2023-03-15T10:42:30.409Z,0.50
2023-03-15T10:45:00.245Z,0.35
2023-03-15T10:47:29.534Z,0.30
2023-03-15T10:49:59.277Z,0.60
2023-03-15T10:52:35.574Z,0.50
2023-03-15T10:55:06.967Z,0.43
2023-03-15T10:57:40.056Z,0.55
2023-03-15T11:00:27.346Z,0.45
2023-03-15T11:03:05.629Z,0.43
2023-03-15T11:05:41.119Z,0.35
2023-03-15T11:08:15.217Z,0.65
2023-03-15T11:10:45.178Z,0.60
2023-03-15T11:13:19.784Z,0.15
2023-03-15T11:16:01.402Z,0.50
2023-03-15T11:18:37.316Z,0.40
2023-03-15T11:21:09.706Z,0.30
2023-03-15T11:23:40.560Z,0.30
2023-03-15T11:26:29.286Z,0.37
2023-03-15T11:29:01.926Z,0.45
2023-03-15T11:31:31.262Z,0.30
2023-03-15T11:34:04.516Z,0.45
2023-03-15T11:36:37.824Z,0.50
2023-03-15T11:39:06.755Z,0.43
2023-03-15T11:41:38.093Z,0.40
2023-03-15T11:44:17.322Z,0.62
2023-03-15T11:46:50.564Z,0.37
2023-03-15T11:49:28.559Z,0.80
2023-03-15T11:51:57.694Z,0.60
2023-03-15T11:54:29.744Z,0.40
2023-03-15T11:57:05.357Z,0.68
2023-03-15T11:59:36.684Z,0.60
2023-03-15T12:02:40.453Z,1.23
2023-03-15T12:05:43.990Z,0.52
2023-03-15T12:08:25.757Z,0.57
2023-03-15T12:10:54.323Z,0.85
2023-03-15T12:13:27.834Z,0.85
2023-03-15T12:15:56.670Z,0.77
2023-03-15T12:18:32.223Z,0.60
2023-03-15T12:21:12.017Z,1.05
2023-03-15T12:23:44.107Z,0.95
2023-03-15T12:26:25.659Z,1.10
2023-03-15T12:29:04.010Z,0.80
2023-03-15T12:31:53.571Z,0.40
2023-03-15T12:34:34.697Z,0.62
2023-03-15T12:37:08.057Z,0.85
2023-03-15T12:39:46.071Z,0.95
2023-03-15T12:42:36.257Z,0.90
2023-03-15T12:45:37.486Z,0.60
2023-03-15T12:48:23.021Z,0.80
2023-03-15T12:50:54.284Z,0.70
2023-03-15T12:53:28.277Z,0.70
2023-03-15T12:56:08.042Z,0.70
2023-03-15T12:58:38.185Z,0.70
2023-03-15T13:01:08.993Z,0.45
2023-03-15T13:03:37.494Z,0.90
2023-03-15T13:06:14.427Z,0.70
2023-03-15T13:08:48.391Z,0.98
2023-03-15T13:11:25.698Z,0.40
2023-03-15T13:14:09.373Z,0.55
2023-03-15T13:16:45.193Z,0.62
2023-03-15T13:19:19.886Z,0.80
2023-03-15T13:22:02.842Z,0.77
2023-03-15T13:24:42.686Z,0.80
2023-03-15T13:27:19.413Z,1.00
2023-03-15T13:29:47.909Z,0.55
2023-03-15T13:32:20.880Z,0.60
2023-03-15T13:34:49.935Z,0.47
2023-03-15T13:37:22.184Z,0.60
2023-03-15T13:39:58.665Z,0.70
2023-03-15T13:42:26.731Z,0.50
2023-03-15T13:45:12.419Z,0.55
2023-03-15T13:47:43.734Z,0.70
2023-03-15T13:50:16.245Z,0.70
2023-03-15T13:52:45.061Z,0.82
2023-03-15T13:55:17.862Z,0.55
2023-03-15T13:57:45.870Z,0.60
2023-03-15T14:00:19.137Z,0.32
2023-03-15T14:02:54.128Z,0.40
2023-03-15T14:05:28.035Z,0.47
2023-03-15T14:08:02.700Z,0.40
2023-03-15T14:10:32.538Z,0.60
2023-03-15T14:13:18.033Z,0.70
2023-03-15T14:15:47.964Z,0.35
2023-03-15T14:18:25.219Z,0.75
2023-03-15T14:20:59.904Z,0.40
2023-03-15T14:23:29.799Z,0.43
2023-03-15T14:26:05.567Z,0.40
2023-03-15T14:28:34.684Z,0.60
2023-03-15T14:31:04.278Z,0.80
2023-03-15T14:33:40.796Z,0.93
2023-03-15T14:36:22.258Z,0.60
2023-03-15T14:38:52.415Z,0.88
2023-03-15T14:41:26.309Z,0.50
2023-03-15T14:43:54.718Z,0.60
2023-03-15T14:46:22.931Z,0.75
2023-03-15T14:48:52.787Z,0.85
2023-03-15T14:51:23.563Z,0.75
2023-03-15T14:53:54.334Z,0.52
2023-03-15T14:56:22.225Z,0.68
2023-03-15T14:58:54.072Z,0.70
2023-03-15T15:01:26.375Z,1.00
2023-03-15T15:04:00.670Z,0.50
2023-03-15T15:06:31.845Z,0.90
2023-03-15T15:09:01.665Z,0.70
2023-03-15T15:11:30.146Z,1.05
2023-03-15T15:13:58.627Z,0.85
2023-03-15T15:16:26.899Z,0.50
2023-03-15T15:18:56.555Z,0.85
2023-03-15T15:21:26.930Z,0.70
2023-03-15T15:23:59.133Z,0.82
2023-03-15T15:26:30.350Z,0.73
2023-03-15T15:28:59.450Z,0.70
2023-03-15T15:31:34.303Z,0.70
2023-03-15T15:34:05.218Z,0.77
2023-03-15T15:36:36.284Z,0.98
2023-03-15T15:39:11.618Z,0.68
2023-03-15T15:41:39.928Z,0.70
2023-03-15T15:44:14.835Z,0.90
2023-03-15T15:46:42.819Z,0.80
2023-03-15T15:49:12.673Z,0.82
2023-03-15T15:51:45.541Z,1.33
2023-03-15T15:54:16.877Z,0.82
2023-03-15T15:56:49.620Z,0.70
2023-03-15T15:59:19.017Z,1.10
2023-03-15T16:01:59.748Z,0.98
2023-03-15T16:04:32.668Z,0.68
2023-03-15T16:07:03.549Z,1.30
2023-03-15T16:09:35.809Z,1.00
2023-03-15T16:12:04.694Z,0.60
2023-03-15T16:14:33.273Z,0.25
2023-03-15T16:17:01.367Z,0.50
2023-03-15T16:19:30.992Z,0.47
2023-03-15T16:21:59.266Z,0.20
2023-03-15T16:24:29.102Z,0.43
2023-03-15T16:27:01.696Z,0.25
2023-03-15T16:29:36.372Z,0.50
2023-03-15T16:32:16.402Z,0.62
2023-03-15T16:34:47.437Z,0.68
2023-03-15T16:37:17.958Z,0.47
2023-03-15T16:39:48.917Z,0.47
2023-03-15T16:42:18.659Z,0.50
2023-03-15T16:44:47.557Z,0.40
2023-03-15T16:47:15.940Z,0.93
2023-03-15T16:49:44.425Z,0.50
2023-03-15T16:52:16.506Z,0.75
2023-03-15T16:54:47.738Z,1.20
2023-03-15T16:57:21.752Z,1.33
2023-03-15T16:59:49.785Z,1.35
2023-03-15T17:02:19.690Z,1.25
2023-03-15T17:04:48.163Z,1.30
2023-03-15T17:07:18.353Z,0.73
2023-03-15T17:09:49.311Z,0.75
2023-03-15T17:12:23.472Z,0.85
2023-03-15T17:14:52.662Z,0.80
2023-03-15T17:17:20.884Z,0.65
2023-03-15T17:19:49.175Z,0.60
2023-03-15T17:22:19.697Z,0.52
2023-03-15T17:24:49.628Z,0.50
2023-03-15T17:27:23.339Z,0.28
2023-03-15T17:29:51.330Z,1.02
2023-03-15T17:32:19.536Z,0.98
2023-03-15T17:34:48.034Z,0.93
2023-03-15T17:37:18.351Z,1.02
2023-03-15T17:39:48.658Z,1.00
2023-03-15T17:42:16.777Z,1.70
2023-03-15T17:44:44.787Z,1.70
2023-03-15T17:47:13.838Z,1.75
2023-03-15T17:49:42.261Z,0.90
2023-03-15T17:52:17.256Z,0.93
2023-03-15T17:54:46.049Z,1.08
2023-03-15T17:57:15.536Z,0.82
2023-03-15T17:59:43.639Z,0.50
2023-03-15T18:02:16.512Z,0.55
2023-03-15T18:04:47.220Z,0.40
2023-03-15T18:07:15.143Z,0.45
2023-03-15T18:09:43.546Z,0.40
2023-03-15T18:12:14.377Z,0.62
2023-03-15T18:14:44.812Z,0.57
2023-03-15T18:17:13.185Z,0.62
2023-03-15T18:19:41.606Z,0.75
2023-03-15T18:22:15.546Z,0.50
2023-03-15T18:24:47.216Z,0.60
2023-03-15T18:27:15.571Z,0.70
2023-03-15T18:29:45.400Z,0.80
2023-03-15T18:32:13.438Z,0.77
2023-03-15T18:34:41.464Z,1.10
2023-03-15T18:37:11.712Z,1.58
2023-03-15T18:39:39.679Z,1.30
2023-03-15T18:42:08.157Z,1.92
2023-03-15T18:44:36.440Z,1.30
2023-03-15T18:47:08.562Z,0.98
2023-03-15T18:49:37.469Z,0.95
2023-03-15T18:52:06.334Z,1.05
2023-03-15T18:54:34.327Z,1.23
2023-03-15T18:57:02.715Z,1.33
2023-03-15T18:59:31.369Z,1.12
2023-03-15T19:01:59.975Z,0.95
2023-03-15T19:04:29.854Z,0.82
2023-03-15T19:06:57.775Z,0.88
2023-03-15T19:09:26.366Z,0.75
2023-03-15T19:11:55.557Z,0.88
2023-03-15T19:14:24.313Z,0.62
2023-03-15T19:16:54.104Z,0.93
2023-03-15T19:19:22.740Z,0.80
2023-03-15T19:21:53.160Z,1.02
2023-03-15T19:24:21.265Z,1.00
2023-03-15T19:26:49.552Z,0.80
2023-03-15T19:29:17.535Z,1.10
2023-03-15T19:31:45.618Z,1.00
2023-03-15T19:34:13.803Z,1.37
2023-03-15T19:36:41.761Z,1.55
2023-03-15T19:39:12.358Z,1.08
2023-03-15T19:41:41.328Z,1.00
2023-03-15T19:44:09.922Z,1.00
2023-03-15T19:46:37.944Z,2.03
2023-03-15T19:49:06.728Z,1.50
2023-03-15T19:51:34.671Z,1.37
2023-03-15T19:54:03.721Z,1.33
2023-03-15T19:56:36.714Z,1.50
2023-03-15T19:59:05.497Z,1.33
2023-03-15T20:01:33.907Z,1.17
2023-03-15T20:04:02.520Z,1.30
2023-03-15T20:06:30.573Z,1.10
2023-03-15T20:08:58.851Z,2.08
2023-03-15T20:11:29.468Z,1.45
2023-03-15T20:13:59.029Z,1.30
2023-03-15T20:16:27.330Z,1.20
2023-03-15T20:18:56.219Z,1.70
2023-03-15T20:21:24.931Z,1.75
2023-03-15T20:23:54.119Z,1.80
2023-03-15T20:26:22.397Z,1.90
2023-03-15T20:28:50.625Z,1.98
2023-03-15T20:31:21.650Z,1.35
2023-03-15T20:33:51.236Z,2.62
2023-03-15T20:36:19.953Z,2.97
2023-03-15T20:38:48.891Z,1.90
2023-03-15T20:41:18.265Z,2.33
2023-03-15T20:43:47.396Z,2.08
2023-03-15T20:46:17.085Z,1.73
2023-03-15T20:48:46.743Z,1.42
2023-03-15T20:51:15.821Z,1.48
2023-03-15T20:53:44.328Z,1.75
2023-03-15T20:56:12.786Z,1.00
2023-03-15T20:58:41.950Z,1.25
2023-03-15T21:01:13.199Z,1.40
2023-03-15T21:03:42.428Z,1.17
2023-03-15T21:06:12.810Z,1.37
2023-03-15T21:08:42.468Z,1.27
2023-03-15T21:11:10.840Z,1.60
2023-03-15T21:13:41.990Z,1.37
2023-03-15T21:16:12.869Z,1.33
2023-03-15T21:18:47.627Z,1.37
2023-03-15T21:21:17.273Z,1.23
2023-03-15T21:23:45.381Z,1.48
2023-03-15T21:26:16.053Z,1.62
2023-03-15T21:28:44.618Z,2.15
2023-03-15T21:31:12.793Z,2.15
2023-03-15T21:33:41.277Z,1.58
2023-03-15T21:36:09.661Z,1.48
2023-03-15T21:38:39.220Z,1.85
2023-03-15T21:41:08.998Z,2.03
2023-03-15T21:43:37.819Z,1.67
2023-03-15T21:46:08.507Z,1.92
2023-03-15T21:48:37.976Z,1.60
2023-03-15T21:51:07.695Z,2.10
2023-03-15T21:53:37.510Z,2.20
2023-03-15T21:56:07.489Z,1.67
2023-03-15T21:58:35.657Z,1.50
2023-03-15T22:01:05.840Z,1.40
2023-03-15T22:03:35.403Z,1.85
2023-03-15T22:06:03.874Z,1.60
2023-03-15T22:08:33.710Z,1.60
2023-03-15T22:11:02.292Z,1.95
2023-03-15T22:13:31.733Z,1.40
2023-03-15T22:16:02.357Z,2.00
2023-03-15T22:18:31.809Z,1.65
2023-03-15T22:20:59.843Z,1.60
2023-03-15T22:23:27.883Z,2.05
2023-03-15T22:25:57.197Z,2.40
2023-03-15T22:28:26.051Z,1.62
2023-03-15T22:30:55.338Z,1.87
2023-03-15T22:33:23.850Z,1.33
2023-03-15T22:35:56.405Z,1.67
2023-03-15T22:38:25.962Z,2.05
2023-03-15T22:41:02.157Z,1.77
2023-03-15T22:43:30.731Z,1.42
2023-03-15T22:46:00.245Z,1.77
2023-03-15T22:48:28.819Z,2.30
2023-03-15T22:50:58.818Z,1.48
2023-03-15T22:53:27.080Z,2.25
2023-03-15T22:55:55.451Z,1.73
2023-03-15T22:58:24.863Z,1.40
2023-03-15T23:00:53.335Z,1.33
2023-03-15T23:03:22.943Z,1.60
2023-03-15T23:05:51.369Z,1.27
2023-03-15T23:08:19.565Z,1.58
2023-03-15T23:10:47.646Z,1.27
2023-03-15T23:13:16.135Z,1.17
2023-03-15T23:15:44.484Z,1.70
2023-03-15T23:18:14.487Z,1.67
2023-03-15T23:20:44.165Z,1.23
2023-03-15T23:23:12.197Z,1.40
2023-03-15T23:25:41.467Z,1.77
2023-03-15T23:28:09.763Z,1.30
2023-03-15T23:30:38.872Z,1.83
2023-03-15T23:33:08.478Z,1.20
2023-03-15T23:35:37.380Z,1.40
2023-03-15T23:38:06.854Z,1.25
2023-03-15T23:40:35.228Z,1.25
2023-03-15T23:43:04.319Z,1.73
2023-03-15T23:45:32.911Z,1.65
2023-03-15T23:48:02.636Z,1.60
2023-03-15T23:50:31.443Z,1.15
2023-03-15T23:52:59.768Z,1.30
2023-03-15T23:55:29.318Z,1.35
2023-03-15T23:57:58.958Z,1.30
